Time;durP1;ratioP1;P1;durP2;ratioP2;P2;SDS_P1;SDS_P2;PMS_P1;PMS_P2;Temp;Humidity;BMP_temperature;BMP_pressure;BME280_temperature;BME280_humidity;BME280_pressure;Samples;Min_cycle;Max_cycle;Signal;HPM_P1;HPM_P2
2022/01/24 00:01:15;;;;;;;;;34.00;31.25;;;;;7.18;59.52;102642.53;5012592;28;45220;-92
2022/01/24 00:03:40;;;;;;;;;36.75;31.75;;;;;7.17;59.62;102656.69;5031790;28;45507;-89
2022/01/24 00:06:09;;;;;;;;;39.50;33.75;;;;;7.18;59.99;102639.00;5014534;28;47946;-89
2022/01/24 00:08:35;;;;;;;;;32.75;27.00;;;;;7.32;59.89;102686.53;5030703;28;45646;-88
2022/01/24 00:11:06;;;;;;;;;40.50;30.75;;;;;7.33;60.13;102681.19;5032188;28;45646;-90
2022/01/24 00:14:19;;;;;;;;;38.75;30.25;;;;;7.08;59.96;102632.94;5024683;28;45807;-90
2022/01/24 00:16:35;;;;;;;;;31.00;28.25;;;;;7.02;59.87;102625.03;5034420;28;46144;-90
2022/01/24 00:26:56;;;;;;;;;33.00;25.75;;;;;7.18;59.80;102644.31;5036225;28;45362;-90
2022/01/24 00:29:24;;;;;;;;;46.25;32.00;;;;;7.24;59.91;102657.50;5022419;28;45464;-90
2022/01/24 00:31:50;;;;;;;;;41.00;31.75;;;;;7.25;59.80;102657.44;5031501;28;45522;-91
2022/01/24 00:34:17;;;;;;;;;31.25;26.75;;;;;7.27;60.18;102661.88;5015874;28;45484;-90
2022/01/24 00:36:46;;;;;;;;;27.50;27.50;;;;;7.15;59.79;102639.06;5044090;28;46455;-90
2022/01/24 00:39:12;;;;;;;;;29.75;29.00;;;;;7.09;60.01;102624.09;5037727;28;48696;-90
2022/01/24 00:41:48;;;;;;;;;31.75;28.00;;;;;7.22;59.60;102638.97;5018279;28;45788;-90
2022/01/24 00:44:37;;;;;;;;;29.25;27.25;;;;;7.10;59.82;102617.91;5032795;28;45625;-90
2022/01/24 00:47:03;;;;;;;;;41.00;32.25;;;;;7.00;59.48;102613.63;5032686;28;48897;-90
2022/01/24 00:53:17;;;;;;;;;35.00;29.50;;;;;7.04;59.50;102629.44;4972807;28;45432;-90
2022/01/24 00:55:18;;;;;;;;;38.75;31.50;;;;;6.93;60.14;102609.28;4973283;28;45482;-91
2022/01/24 00:57:43;;;;;;;;;32.00;27.50;;;;;6.95;60.09;102597.78;4954154;28;47401;-91
2022/01/24 01:00:10;;;;;;;;;33.00;27.50;;;;;6.97;60.27;102614.50;4967004;28;45471;-90
2022/01/24 01:02:36;;;;;;;;;23.50;23.50;;;;;7.13;60.08;102622.28;4960125;28;45698;-92
2022/01/24 01:05:15;;;;;;;;;30.50;26.75;;;;;7.00;59.96;102614.50;4944601;28;45535;-89
2022/01/24 01:07:54;;;;;;;;;27.75;27.75;;;;;7.15;59.65;102645.22;4946316;28;48649;-90
2022/01/24 01:18:44;;;;;;;;;35.00;29.00;;;;;6.94;60.06;102624.25;4966390;28;45394;-89
2022/01/24 01:21:11;;;;;;;;;34.00;30.25;;;;;7.06;60.25;102634.72;4967993;28;45484;-90
2022/01/24 01:23:46;;;;;;;;;30.25;30.25;;;;;6.97;60.41;102630.38;4964087;28;45468;-90
2022/01/24 01:27:00;;;;;;;;;27.25;25.75;;;;;6.93;60.29;102614.59;4984081;28;45464;-91
2022/01/24 01:29:06;;;;;;;;;33.25;28.75;;;;;6.90;60.29;102604.00;5007526;28;45647;-91
2022/01/24 01:34:08;;;;;;;;;30.50;24.25;;;;;6.92;60.32;102618.09;5013291;28;45443;-90
2022/01/24 01:55:15;;;;;;;;;33.75;29.25;;;;;6.90;60.64;102620.75;5033512;28;45564;-90
2022/01/24 01:57:41;;;;;;;;;29.75;25.25;;;;;6.67;60.57;102581.31;5030807;28;45559;-90
2022/01/24 02:00:09;;;;;;;;;35.75;30.50;;;;;6.91;60.34;102619.88;5031224;28;45552;-90
2022/01/24 02:02:34;;;;;;;;;36.75;30.25;;;;;6.82;60.31;102604.09;5015722;28;45482;-90
2022/01/24 02:04:59;;;;;;;;;29.50;26.75;;;;;6.73;60.39;102593.59;5015666;28;45510;-91
2022/01/24 02:07:25;;;;;;;;;32.50;27.25;;;;;6.66;60.87;102602.47;5035060;28;45608;-90
2022/01/24 02:09:50;;;;;;;;;27.50;26.50;;;;;6.69;61.01;102607.78;5035257;28;45644;-90
2022/01/24 02:12:18;;;;;;;;;37.50;31.00;;;;;6.63;60.84;102587.50;5034782;28;45582;-90
2022/01/24 02:14:51;;;;;;;;;33.50;28.50;;;;;6.80;60.50;102625.25;5014655;28;45411;-90
2022/01/24 02:17:25;;;;;;;;;31.50;23.75;;;;;6.65;60.54;102624.56;5016655;28;45571;-90
2022/01/24 02:22:49;;;;;;;;;36.75;32.00;;;;;6.67;60.73;102626.28;5007979;28;45898;-90
2022/01/24 02:25:26;;;;;;;;;30.00;26.75;;;;;6.64;60.66;102594.56;5032321;28;45326;-90
2022/01/24 02:27:57;;;;;;;;;33.75;28.75;;;;;6.67;60.55;102597.19;5036005;28;45455;-90
2022/01/24 02:33:03;;;;;;;;;31.00;25.25;;;;;6.74;60.71;102605.94;5035069;28;45371;-90
2022/01/24 02:35:28;;;;;;;;;28.25;27.00;;;;;6.77;60.47;102598.84;5035116;28;45410;-90
2022/01/24 02:37:55;;;;;;;;;28.00;26.50;;;;;6.75;60.83;102611.22;5014541;28;45281;-90
2022/01/24 02:40:22;;;;;;;;;29.75;26.75;;;;;6.73;60.24;102601.53;5047116;28;46397;-90
2022/01/24 02:51:27;;;;;;;;;29.50;28.00;;;;;6.56;61.30;102606.97;5033530;28;46010;-91
2022/01/24 02:53:37;;;;;;;;;34.00;29.00;;;;;6.47;60.93;102592.09;5033154;28;45539;-91
2022/01/24 02:56:04;;;;;;;;;30.75;26.00;;;;;6.33;61.39;102584.28;5033952;28;45407;-90
2022/01/24 02:58:29;;;;;;;;;31.00;30.25;;;;;6.44;61.06;102605.31;5032467;28;45578;-90
2022/01/24 03:00:56;;;;;;;;;33.00;28.50;;;;;6.33;61.60;102583.41;5016808;28;47923;-91
2022/01/24 03:03:21;;;;;;;;;37.00;28.75;;;;;6.36;61.32;102576.31;5017091;28;45400;-91
2022/01/24 03:05:47;;;;;;;;;31.50;30.75;;;;;6.33;61.60;102564.88;5018008;28;45465;-90
2022/01/24 03:08:14;;;;;;;;;34.75;30.75;;;;;6.34;61.40;102593.06;5027768;28;45610;-90
2022/01/24 03:10:44;;;;;;;;;31.25;28.75;;;;;6.34;61.26;102590.44;5035780;28;46383;-90
2022/01/24 03:15:52;;;;;;;;;37.25;30.75;;;;;6.27;61.51;102546.41;5034883;28;45598;-90
2022/01/24 03:18:19;;;;;;;;;30.25;24.00;;;;;6.48;61.11;102572.66;5034473;28;45495;-90
2022/01/24 03:20:45;;;;;;;;;33.25;27.50;;;;;6.49;61.20;102574.41;5034862;28;46291;-90
2022/01/24 03:23:14;;;;;;;;;38.25;32.50;;;;;6.43;60.98;102573.63;5018358;28;45986;-90
2022/01/24 03:25:41;;;;;;;;;36.25;31.25;;;;;6.52;61.04;102571.75;5017308;28;45412;-90
2022/01/24 03:28:06;;;;;;;;;35.00;30.75;;;;;6.39;61.36;102557.75;5035035;28;45503;-89
2022/01/24 03:30:33;;;;;;;;;42.50;29.25;;;;;6.40;60.72;102550.72;5034201;28;45963;-90
2022/01/24 03:32:59;;;;;;;;;32.50;29.50;;;;;6.49;61.03;102568.25;5034897;28;45397;-90
2022/01/24 03:35:25;;;;;;;;;32.00;29.75;;;;;6.40;60.74;102558.66;5034654;28;45444;-89
2022/01/24 03:37:51;;;;;;;;;28.25;26.50;;;;;6.32;61.01;102539.31;5034916;28;45466;-90
2022/01/24 03:40:16;;;;;;;;;33.00;29.00;;;;;6.28;60.86;102532.31;5016666;28;48504;-90
2022/01/24 03:42:42;;;;;;;;;37.50;32.50;;;;;6.49;60.79;102589.41;5017041;28;45838;-90
2022/01/24 03:45:11;;;;;;;;;32.25;29.50;;;;;6.30;61.02;102549.03;5034865;28;45455;-89
2022/01/24 03:50:05;;;;;;;;;32.75;27.00;;;;;6.38;60.99;102563.94;5033652;28;45546;-90
2022/01/24 03:52:31;;;;;;;;;33.75;28.50;;;;;6.26;60.67;102557.91;5016681;28;45395;-90
2022/01/24 03:54:58;;;;;;;;;35.25;31.25;;;;;6.43;60.98;102557.75;5017526;28;45445;-90
2022/01/24 03:57:24;;;;;;;;;35.25;30.00;;;;;6.26;60.96;102555.25;5016240;28;45490;-91
2022/01/24 03:59:50;;;;;;;;;35.50;24.00;;;;;6.28;61.25;102534.97;5034395;28;46517;-90
2022/01/24 04:02:18;;;;;;;;;30.75;27.25;;;;;6.38;61.01;102565.72;5033149;28;45570;-90
2022/01/24 04:04:43;;;;;;;;;35.00;28.75;;;;;6.13;61.24;102526.28;5016717;28;45512;-90
2022/01/24 04:07:09;;;;;;;;;37.00;27.50;;;;;6.17;60.90;102508.59;5033517;28;45552;-90
2022/01/24 04:09:35;;;;;;;;;36.25;28.75;;;;;6.33;61.30;102541.97;5035216;28;45404;-90
2022/01/24 04:12:02;;;;;;;;;32.50;27.75;;;;;6.24;60.98;102520.88;5034739;28;45496;-90
2022/01/24 04:14:35;;;;;;;;;31.25;28.50;;;;;6.43;61.05;102552.44;5035311;28;45409;-90
2022/01/24 04:22:09;;;;;;;;;33.25;30.50;;;;;6.16;61.32;102509.50;5034423;28;45272;-91
2022/01/24 04:24:34;;;;;;;;;35.50;30.25;;;;;6.38;61.25;102549.84;5037392;28;45416;-90
2022/01/24 04:27:00;;;;;;;;;30.50;27.50;;;;;6.23;60.76;102524.44;5034936;28;45609;-90
2022/01/24 04:29:25;;;;;;;;;33.00;28.75;;;;;6.18;60.87;102527.13;5034579;28;45289;-91
2022/01/24 04:31:51;;;;;;;;;34.75;33.50;;;;;6.18;61.41;102519.19;5016843;28;45259;-91
2022/01/24 04:34:16;;;;;;;;;34.50;33.25;;;;;6.25;61.07;102541.13;5017272;28;45314;-91
2022/01/24 04:36:41;;;;;;;;;30.50;28.75;;;;;6.18;60.88;102521.81;5034153;28;45457;-91
2022/01/24 04:39:07;;;;;;;;;38.75;26.25;;;;;6.33;61.29;102562.25;5034337;28;46393;-89
2022/01/24 04:41:37;;;;;;;;;36.25;29.25;;;;;6.31;61.17;102553.44;5033019;28;45838;-90
2022/01/24 04:44:13;;;;;;;;;33.00;30.00;;;;;6.20;61.03;102550.88;5033702;28;45546;-91
2022/01/24 04:47:03;;;;;;;;;34.75;27.75;;;;;6.06;61.27;102519.28;5019736;28;45546;-90
2022/01/24 04:57:11;;;;;;;;;38.50;30.00;;;;;6.04;61.65;102542.22;5033831;28;45470;-90
2022/01/24 04:59:40;;;;;;;;;35.75;28.00;;;;;6.15;61.38;102558.84;5033685;28;45443;-90
2022/01/24 05:02:06;;;;;;;;;39.25;33.25;;;;;6.12;61.74;102545.66;5037130;28;45464;-90
2022/01/24 05:04:32;;;;;;;;;30.25;25.25;;;;;6.02;61.65;102527.25;5019486;28;45476;-90
2022/01/24 05:06:57;;;;;;;;;30.75;29.00;;;;;6.06;61.47;102532.50;5033508;28;45481;-90
2022/01/24 05:09:23;;;;;;;;;35.75;28.00;;;;;6.13;61.75;102544.78;5026616;28;47864;-89
2022/01/24 05:25:10;;;;;;;;;33.50;29.00;;;;;5.74;62.10;102533.56;5034859;28;45324;-90
2022/01/24 05:27:36;;;;;;;;;35.50;28.50;;;;;5.65;62.43;102533.66;5019454;28;45673;-90
2022/01/24 05:30:01;;;;;;;;;29.50;28.25;;;;;5.76;62.51;102570.56;5036220;28;45733;-90
2022/01/24 05:32:27;;;;;;;;;35.25;32.00;;;;;5.74;62.60;102535.34;5036634;28;45304;-90
2022/01/24 05:34:52;;;;;;;;;30.25;24.50;;;;;5.74;62.50;102538.84;5018693;28;45327;-90
2022/01/24 05:37:17;;;;;;;;;34.75;28.50;;;;;5.70;62.27;102538.88;5034739;28;45936;-90
2022/01/24 05:39:43;;;;;;;;;39.00;31.75;;;;;5.60;62.07;102500.22;5038550;28;46305;-90
2022/01/24 05:42:08;;;;;;;;;32.75;27.00;;;;;5.71;62.19;102540.66;5039338;28;45376;-90
2022/01/24 05:44:34;;;;;;;;;31.50;31.50;;;;;5.62;62.32;102522.22;5037791;28;45223;-90
2022/01/24 05:46:59;;;;;;;;;33.75;29.75;;;;;5.59;62.73;102533.69;5017174;28;45526;-91
2022/01/24 05:49:24;;;;;;;;;36.00;29.00;;;;;5.58;62.51;102531.03;5037721;28;45559;-90
2022/01/24 05:51:49;;;;;;;;;29.50;26.25;;;;;5.52;62.87;102529.34;5018794;28;45182;-90
2022/01/24 05:54:15;;;;;;;;;26.00;24.00;;;;;5.48;62.77;102524.94;5037619;28;45618;-90
2022/01/24 05:56:40;;;;;;;;;43.00;30.00;;;;;5.48;63.33;102546.06;5020736;28;45522;-91
2022/01/24 05:59:06;;;;;;;;;33.50;32.00;;;;;5.41;63.25;102531.16;5036557;28;45894;-90
2022/01/24 06:01:31;;;;;;;;;35.00;31.50;;;;;5.28;63.27;102511.88;5019117;28;45290;-91
2022/01/24 06:03:56;;;;;;;;;33.50;31.00;;;;;5.48;63.47;102524.94;5036904;28;45651;-90
2022/01/24 06:06:22;;;;;;;;;33.75;27.25;;;;;5.47;62.96;102536.41;5016413;28;45320;-90
2022/01/24 06:08:47;;;;;;;;;33.75;30.00;;;;;5.57;63.14;102542.50;5018835;28;48152;-91
2022/01/24 06:11:12;;;;;;;;;24.50;24.25;;;;;5.52;63.19;102527.56;5036483;28;45614;-91
2022/01/24 06:13:38;;;;;;;;;28.25;26.00;;;;;5.36;63.18;102517.97;5035913;28;45645;-91
2022/01/24 06:16:05;;;;;;;;;35.25;30.75;;;;;5.46;62.73;102521.44;5018090;28;45385;-90
2022/01/24 06:18:30;;;;;;;;;34.25;30.75;;;;;5.35;62.89;102537.34;5035923;28;46094;-90
2022/01/24 06:20:57;;;;;;;;;34.00;30.25;;;;;5.44;63.14;102532.03;5035546;28;45507;-90
2022/01/24 06:23:22;;;;;;;;;39.75;29.50;;;;;5.32;62.90;102508.34;5036108;28;45464;-90
2022/01/24 06:25:48;;;;;;;;;39.50;28.50;;;;;5.41;63.13;102520.59;5036115;28;45289;-90
2022/01/24 06:28:13;;;;;;;;;36.25;31.25;;;;;5.38;63.66;102553.16;5017664;28;47918;-91
2022/01/24 06:30:39;;;;;;;;;35.75;30.75;;;;;5.39;62.86;102540.84;5036025;28;45404;-90
2022/01/24 06:33:04;;;;;;;;;30.25;28.00;;;;;5.37;63.37;102540.00;5035756;28;45514;-90
2022/01/24 06:35:30;;;;;;;;;26.50;20.50;;;;;5.47;62.94;102562.81;5033965;28;45456;-90
2022/01/24 06:37:55;;;;;;;;;32.25;27.50;;;;;5.42;63.37;102557.56;5035116;28;46702;-90
2022/01/24 06:40:21;;;;;;;;;37.25;31.50;;;;;5.46;63.35;102561.94;5016340;28;45534;-90
2022/01/24 06:42:46;;;;;;;;;35.00;30.75;;;;;5.50;63.22;102560.16;5018407;28;45290;-90
2022/01/24 06:45:12;;;;;;;;;33.00;29.50;;;;;5.34;63.24;102522.41;5017575;28;45387;-90
2022/01/24 06:47:38;;;;;;;;;36.00;30.00;;;;;5.50;62.95;102555.75;5017325;28;46952;-90
2022/01/24 06:50:05;;;;;;;;;42.25;34.75;;;;;5.39;63.23;102531.19;5034561;28;45450;-91
2022/01/24 06:52:30;;;;;;;;;41.75;34.25;;;;;5.28;63.26;102514.50;5035257;28;45475;-90
2022/01/24 06:54:55;;;;;;;;;32.25;28.00;;;;;5.06;63.25;102497.91;5035959;28;45376;-90
2022/01/24 06:57:21;;;;;;;;;39.50;32.75;;;;;5.18;63.43;102529.53;5035241;28;45459;-91
2022/01/24 06:59:46;;;;;;;;;33.00;30.75;;;;;5.39;63.49;102565.50;5034960;28;45458;-91
2022/01/24 07:02:14;;;;;;;;;29.00;23.75;;;;;5.18;63.50;102520.72;5022426;28;45447;-90
2022/01/24 07:04:42;;;;;;;;;37.50;34.00;;;;;5.37;63.58;102571.69;5035612;28;45234;-90
2022/01/24 07:07:09;;;;;;;;;38.00;31.75;;;;;5.24;63.39;102544.44;5035423;28;46084;-90
2022/01/24 07:09:35;;;;;;;;;41.00;34.00;;;;;5.23;63.48;102543.56;5028199;28;46242;-91
2022/01/24 07:12:01;;;;;;;;;34.25;30.75;;;;;5.18;63.31;102541.84;5030124;28;45476;-91
2022/01/24 07:14:26;;;;;;;;;35.75;32.25;;;;;5.27;63.18;102539.16;5033681;28;45403;-91
2022/01/24 07:19:20;;;;;;;;;41.25;34.00;;;;;5.40;62.93;102567.25;5035584;28;45372;-91
2022/01/24 07:21:46;;;;;;;;;32.00;26.25;;;;;5.25;63.18;102562.94;5017236;28;47338;-91
2022/01/24 07:24:12;;;;;;;;;34.25;25.00;;;;;5.41;63.49;102569.03;5036944;28;45463;-92
2022/01/24 07:26:37;;;;;;;;;38.25;33.00;;;;;5.31;63.07;102548.81;5020997;28;48128;-92
2022/01/24 07:29:03;;;;;;;;;34.75;28.75;;;;;5.24;63.14;102529.50;5021371;28;45891;-92
2022/01/24 07:31:28;;;;;;;;;44.00;35.00;;;;;5.29;63.34;102561.13;5020665;28;45516;-92
2022/01/24 07:33:55;;;;;;;;;42.00;34.00;;;;;5.30;63.13;102549.72;5020624;28;45444;-92
2022/01/24 07:36:22;;;;;;;;;43.00;36.00;;;;;5.51;63.18;102578.66;5019225;28;47922;-91
2022/01/24 07:38:47;;;;;;;;;39.50;33.75;;;;;5.24;62.89;102532.16;5017164;28;45436;-92
2022/01/24 07:41:15;;;;;;;;;42.75;37.50;;;;;5.35;62.79;102550.56;5033768;28;45532;-91
2022/01/24 07:43:40;;;;;;;;;36.25;34.75;;;;;5.43;63.06;102569.00;5034516;28;46270;-92
2022/01/24 07:46:06;;;;;;;;;32.75;27.00;;;;;5.28;63.09;102540.91;5033144;28;45759;-91
2022/01/24 07:48:31;;;;;;;;;39.50;35.00;;;;;5.10;62.90;102502.28;5033848;28;45269;-91
2022/01/24 07:50:57;;;;;;;;;43.50;37.75;;;;;5.15;63.03;102528.63;5016408;28;45479;-91
2022/01/24 07:53:24;;;;;;;;;33.00;30.25;;;;;5.21;63.18;102545.34;5034707;28;45448;-92
2022/01/24 07:55:50;;;;;;;;;40.25;35.75;;;;;5.23;63.47;102548.84;5012970;28;47351;-90
2022/01/24 07:58:16;;;;;;;;;46.50;37.25;;;;;5.23;63.60;102584.94;5001128;28;45908;-91
2022/01/24 08:00:42;;;;;;;;;37.75;30.00;;;;;5.13;63.70;102562.97;5032891;28;45417;-93
2022/01/24 08:03:08;;;;;;;;;36.75;33.00;;;;;5.27;63.88;102589.34;5017799;28;47822;-92
2022/01/24 08:05:38;;;;;;;;;42.50;36.50;;;;;5.30;63.67;102611.31;5015920;28;47380;-92
2022/01/24 08:08:04;;;;;;;;;37.75;33.00;;;;;5.01;63.72;102534.00;5031065;28;45672;-90
2022/01/24 08:10:29;;;;;;;;;41.75;36.75;;;;;5.32;63.15;102576.97;5028731;28;45376;-90
2022/01/24 08:12:55;;;;;;;;;37.00;34.50;;;;;5.26;63.24;102562.03;5011426;28;45527;-91
2022/01/24 08:15:20;;;;;;;;;32.00;28.00;;;;;5.04;63.79;102526.94;5031283;28;46405;-90
2022/01/24 08:17:47;;;;;;;;;34.75;29.75;;;;;5.16;63.72;102567.38;5029561;28;45617;-91
2022/01/24 08:20:14;;;;;;;;;41.75;35.25;;;;;5.17;63.45;102555.91;5034098;28;45469;-90
2022/01/24 08:22:40;;;;;;;;;46.25;37.50;;;;;5.07;63.83;102557.72;5034809;28;45597;-90
2022/01/24 08:25:07;;;;;;;;;41.50;34.50;;;;;5.15;63.72;102562.97;5033663;28;45530;-90
2022/01/24 08:27:33;;;;;;;;;34.00;31.00;;;;;5.10;63.39;102550.69;5033524;28;45345;-90
2022/01/24 08:29:59;;;;;;;;;37.00;32.00;;;;;5.28;63.59;102597.22;5032515;28;45384;-90
2022/01/24 08:32:25;;;;;;;;;32.50;32.25;;;;;5.13;63.68;102533.94;5028397;28;45454;-91
2022/01/24 08:34:58;;;;;;;;;41.75;34.75;;;;;5.17;63.37;102540.06;5027818;28;45494;-91
2022/01/24 08:37:24;;;;;;;;;32.75;28.00;;;;;5.33;63.72;102579.59;5029685;28;45392;-90
2022/01/24 08:39:50;;;;;;;;;40.25;34.25;;;;;5.26;63.78;102574.34;5020151;28;45574;-90
2022/01/24 08:42:35;;;;;;;;;35.00;32.50;;;;;5.51;63.82;102598.91;5036214;28;45451;-90
2022/01/24 08:47:32;;;;;;;;;39.00;32.00;;;;;5.46;63.52;102576.91;5036690;28;46447;-91
2022/01/24 08:49:58;;;;;;;;;46.50;37.50;;;;;5.55;63.36;102601.50;5017578;28;45364;-90
2022/01/24 08:52:27;;;;;;;;;41.25;35.50;;;;;5.66;63.06;102579.44;5024223;28;45464;-91
2022/01/24 08:54:54;;;;;;;;;37.00;30.00;;;;;5.58;63.12;102568.94;5033856;28;46299;-91
2022/01/24 08:57:25;;;;;;;;;41.75;34.50;;;;;5.64;63.04;102599.72;5013180;28;45540;-91
2022/01/24 08:59:52;;;;;;;;;44.25;35.50;;;;;5.83;62.83;102590.78;5022120;28;45468;-90
2022/01/24 09:02:18;;;;;;;;;44.25;37.25;;;;;5.81;63.05;102607.53;5019463;28;45565;-90
2022/01/24 09:04:43;;;;;;;;;56.50;43.25;;;;;5.71;62.85;102594.38;5032316;28;47370;-90
2022/01/24 09:07:09;;;;;;;;;47.50;39.50;;;;;5.87;63.29;102611.03;5012256;28;45329;-91
2022/01/24 09:09:36;;;;;;;;;52.75;41.25;;;;;5.90;63.19;102592.50;5030778;28;45275;-88
2022/01/24 09:12:06;;;;;;;;;44.25;36.00;;;;;5.95;62.55;102598.66;5030333;28;45257;-89
2022/01/24 09:14:32;;;;;;;;;51.00;39.00;;;;;5.87;63.01;102584.59;5025597;28;46048;-90
2022/01/24 09:16:57;;;;;;;;;50.00;37.00;;;;;5.91;62.59;102612.75;5033086;28;45754;-90
2022/01/24 09:19:23;;;;;;;;;39.25;36.25;;;;;6.02;62.53;102623.28;5033339;28;45557;-90
2022/01/24 09:21:49;;;;;;;;;42.25;36.25;;;;;5.92;62.80;102600.44;5010444;28;45519;-90
2022/01/24 09:24:15;;;;;;;;;49.50;39.50;;;;;5.98;62.54;102608.34;5012884;28;46198;-89
2022/01/24 09:26:40;;;;;;;;;36.75;31.25;;;;;6.14;62.47;102622.34;5030447;28;45460;-89
2022/01/24 09:29:05;;;;;;;;;35.25;32.50;;;;;5.97;62.59;102612.75;5032391;28;45980;-89
2022/01/24 09:31:31;;;;;;;;;39.00;32.00;;;;;5.92;62.77;102618.94;5029985;28;45928;-90
2022/01/24 09:33:57;;;;;;;;;39.25;34.00;;;;;6.01;62.79;102626.81;5005952;28;47421;-91
2022/01/24 09:36:23;;;;;;;;;37.50;33.75;;;;;5.69;62.76;102564.44;5036140;28;45292;-91
2022/01/24 09:38:49;;;;;;;;;36.75;31.00;;;;;6.01;62.76;102615.38;5019135;28;45487;-90
2022/01/24 09:41:15;;;;;;;;;41.75;34.50;;;;;5.96;62.94;102591.59;5035859;28;45502;-90
2022/01/24 09:43:43;;;;;;;;;46.00;37.50;;;;;5.92;62.69;102593.38;5035432;28;46192;-91
2022/01/24 09:46:10;;;;;;;;;44.75;36.75;;;;;6.09;62.93;102592.41;5009898;28;45433;-90
2022/01/24 09:48:38;;;;;;;;;36.00;33.00;;;;;6.04;62.44;102596.81;5018840;28;45570;-90
2022/01/24 09:51:04;;;;;;;;;46.00;34.75;;;;;6.22;62.54;102587.91;5018589;28;45672;-91
2022/01/24 09:53:30;;;;;;;;;45.00;37.75;;;;;6.29;62.57;102592.25;5036064;28;46335;-91
2022/01/24 09:55:59;;;;;;;;;40.75;35.75;;;;;6.40;62.13;102609.78;5036521;28;45569;-91
2022/01/24 09:58:24;;;;;;;;;40.50;32.50;;;;;6.47;62.31;102637.06;5028759;28;45420;-90
2022/01/24 10:00:49;;;;;;;;;36.00;33.50;;;;;6.26;62.06;102590.50;5018712;28;45433;-91
2022/01/24 10:03:15;;;;;;;;;35.00;29.50;;;;;6.27;62.14;102583.44;5035835;28;46084;-90
2022/01/24 10:05:42;;;;;;;;;31.50;29.00;;;;;6.45;62.39;102630.91;5035790;28;45359;-91
2022/01/24 10:08:17;;;;;;;;;40.00;34.25;;;;;6.46;62.40;102611.47;5036351;28;45393;-91
2022/01/24 10:10:56;;;;;;;;;36.50;34.00;;;;;6.54;62.25;102598.19;5035998;28;45408;-91
2022/01/24 10:18:58;;;;;;;;;39.50;36.00;;;;;6.77;62.07;102601.47;5035182;28;45357;-89
2022/01/24 10:21:23;;;;;;;;;40.25;36.00;;;;;6.68;62.03;102584.81;5036560;28;45519;-90
2022/01/24 10:23:49;;;;;;;;;44.25;38.25;;;;;6.98;61.74;102623.34;5036774;28;47103;-88
2022/01/24 10:26:14;;;;;;;;;48.50;38.00;;;;;6.91;61.66;102613.72;5036141;28;45427;-89
2022/01/24 10:28:44;;;;;;;;;41.25;37.00;;;;;7.01;61.69;102608.28;5036435;28;45576;-90
2022/01/24 10:31:24;;;;;;;;;50.75;38.25;;;;;7.04;61.11;102591.50;5018994;28;45370;-89
2022/01/24 10:34:18;;;;;;;;;41.75;38.00;;;;;7.24;61.21;102610.69;5034141;28;48474;-90
2022/01/24 10:36:52;;;;;;;;;48.00;38.75;;;;;7.19;60.94;102586.03;5037418;28;45752;-91
2022/01/24 10:39:43;;;;;;;;;46.00;39.25;;;;;7.48;60.94;102611.28;5008495;28;45579;-90
2022/01/24 10:45:11;;;;;;;;;50.50;37.50;;;;;7.52;60.39;102590.91;5032367;28;45440;-90
2022/01/24 10:47:43;;;;;;;;;43.25;37.25;;;;;7.63;60.18;102576.59;5036126;28;45488;-90
2022/01/24 10:50:10;;;;;;;;;38.75;35.25;;;;;7.74;59.99;102579.09;5039362;28;45483;-88
2022/01/24 10:52:35;;;;;;;;;40.75;33.75;;;;;7.89;59.07;102601.88;5033309;28;45342;-89
2022/01/24 10:55:28;;;;;;;;;33.00;29.50;;;;;7.94;59.14;102599.13;5023676;28;45427;-89
2022/01/24 10:58:17;;;;;;;;;31.00;28.50;;;;;7.97;58.79;102578.75;5035433;28;45669;-89
2022/01/24 11:00:44;;;;;;;;;33.75;31.00;;;;;8.00;58.86;102584.00;5019097;28;45446;-90
2022/01/24 11:03:18;;;;;;;;;39.25;33.25;;;;;8.13;58.85;102571.44;5037632;28;45521;-87
2022/01/24 11:05:44;;;;;;;;;43.00;34.00;;;;;8.30;58.15;102571.16;5010648;28;48231;-87
2022/01/24 11:08:12;;;;;;;;;30.50;29.75;;;;;8.15;57.83;102532.47;5034450;28;45414;-87
2022/01/24 11:10:50;;;;;;;;;36.25;31.50;;;;;8.53;57.38;102579.59;5028818;28;45256;-87
2022/01/24 11:13:20;;;;;;;;;36.25;30.00;;;;;8.57;57.59;102574.25;5035595;28;45569;-87
2022/01/24 11:15:56;;;;;;;;;37.50;33.00;;;;;8.78;57.50;102578.28;5032045;28;46114;-87
2022/01/24 11:18:22;;;;;;;;;36.25;29.25;;;;;8.91;57.24;102582.47;5032349;28;45290;-88
2022/01/24 11:20:49;;;;;;;;;34.75;30.25;;;;;9.01;56.77;102569.88;5007065;28;45556;-89
2022/01/24 11:23:21;;;;;;;;;41.00;30.25;;;;;9.16;56.63;102582.84;5030616;28;45540;-88
2022/01/24 11:25:48;;;;;;;;;34.50;32.25;;;;;9.17;56.55;102566.88;5029927;28;45966;-88
2022/01/24 11:28:13;;;;;;;;;32.50;31.25;;;;;9.32;56.01;102578.09;5032494;28;45455;-88
2022/01/24 11:30:54;;;;;;;;;34.50;29.75;;;;;9.12;55.87;102539.53;5038315;28;45859;-90
2022/01/24 11:33:34;;;;;;;;;35.75;33.00;;;;;9.39;55.47;102575.25;5023807;28;45490;-88
2022/01/24 11:36:04;;;;;;;;;41.25;32.50;;;;;9.47;55.21;102585.72;5006981;28;48395;-88
2022/01/24 11:38:37;;;;;;;;;36.00;31.25;;;;;9.22;55.27;102504.78;5008494;28;45561;-88
2022/01/24 11:41:13;;;;;;;;;33.00;32.25;;;;;9.52;54.88;102557.25;5028712;28;45822;-88
2022/01/24 11:43:44;;;;;;;;;34.25;32.25;;;;;9.59;54.83;102564.19;5021238;28;45838;-88
2022/01/24 11:46:52;;;;;;;;;33.00;30.75;;;;;9.69;54.58;102561.31;5027314;28;46477;-88
2022/01/24 11:49:23;;;;;;;;;40.50;33.00;;;;;9.74;54.46;102559.41;5027099;28;45896;-88
2022/01/24 11:51:51;;;;;;;;;39.00;31.75;;;;;9.79;54.71;102550.44;5004853;28;45459;-87
2022/01/24 11:57:14;;;;;;;;;38.00;33.25;;;;;9.99;54.36;102552.63;5018834;28;46143;-88
2022/01/24 11:59:39;;;;;;;;;42.00;35.00;;;;;10.05;54.09;102546.25;5007609;28;45567;-87
2022/01/24 12:02:12;;;;;;;;;39.00;33.00;;;;;10.05;53.62;102546.25;5028076;28;45701;-88
2022/01/24 12:05:08;;;;;;;;;39.25;33.00;;;;;10.07;53.49;102543.56;5024467;28;45447;-87
2022/01/24 12:07:50;;;;;;;;;34.50;31.50;;;;;10.19;53.85;102541.47;5005008;28;48684;-86
2022/01/24 12:10:22;;;;;;;;;38.75;33.50;;;;;10.27;53.72;102546.63;5030108;28;45417;-86
2022/01/24 12:12:51;;;;;;;;;35.50;33.00;;;;;10.21;52.80;102555.63;5033821;28;45416;-86
2022/01/24 12:15:38;;;;;;;;;37.50;32.75;;;;;10.17;52.99;102551.31;5036469;28;45421;-86
2022/01/24 12:18:06;;;;;;;;;40.75;33.50;;;;;10.18;53.37;102544.19;5015576;28;48449;-86
2022/01/24 12:20:31;;;;;;;;;26.25;24.25;;;;;10.29;54.76;102551.91;5039364;28;45693;-86
2022/01/24 12:22:57;;;;;;;;;30.75;30.75;;;;;10.32;53.16;102542.06;5014692;28;45567;-86
2022/01/24 12:25:49;;;;;;;;;36.25;32.25;;;;;10.45;53.07;102534.63;5005628;28;45548;-86
2022/01/24 12:28:21;;;;;;;;;33.50;28.00;;;;;10.55;52.91;102535.25;5038028;28;45626;-86
2022/01/24 12:31:24;;;;;;;;;38.00;35.00;;;;;10.62;52.54;102521.72;5044920;28;45400;-86
2022/01/24 12:33:53;;;;;;;;;36.25;32.75;;;;;10.69;52.24;102533.09;5029106;28;45489;-86
2022/01/24 12:36:47;;;;;;;;;38.75;31.00;;;;;10.71;52.26;102535.72;5037199;28;45468;-86
2022/01/24 12:39:33;;;;;;;;;37.50;34.00;;;;;10.76;52.17;102531.13;5035928;28;46260;-87
2022/01/24 12:42:04;;;;;;;;;32.75;29.50;;;;;10.82;51.74;102537.19;5020511;28;45547;-88
2022/01/24 12:47:03;;;;;;;;;36.25;31.75;;;;;10.92;51.61;102526.22;5034265;28;45542;-88
2022/01/24 12:49:30;;;;;;;;;29.25;27.75;;;;;10.99;51.57;102520.72;5039808;28;46474;-89
2022/01/24 12:52:00;;;;;;;;;34.50;31.00;;;;;11.05;51.74;102523.16;5027116;28;45544;-89
2022/01/24 12:54:34;;;;;;;;;38.25;33.50;;;;;11.14;51.41;102518.50;5034337;28;45509;-87
2022/01/24 12:57:02;;;;;;;;;33.00;30.00;;;;;11.11;51.04;102507.91;5034728;28;45603;-86
2022/01/24 12:59:27;;;;;;;;;32.75;30.50;;;;;11.22;50.88;102514.66;5037921;28;46370;-86
2022/01/24 13:01:56;;;;;;;;;28.00;28.00;;;;;11.20;50.91;102519.16;5033874;28;45374;-86
2022/01/24 13:04:33;;;;;;;;;35.00;31.50;;;;;11.22;50.71;102516.47;5035182;28;45431;-86
2022/01/24 13:06:59;;;;;;;;;35.00;33.50;;;;;11.25;50.85;102517.22;5033432;28;45700;-87
2022/01/24 13:09:33;;;;;;;;;32.75;28.00;;;;;11.35;50.36;102519.63;5030784;28;45988;-89